Time;durP1;ratioP1;P1;durP2;ratioP2;P2;SDS_P1;SDS_P2;PMS_P1;PMS_P2;Temp;Humidity;BMP_temperature;BMP_pressure;BME280_temperature;BME280_humidity;BME280_pressure;Samples;Min_cycle;Max_cycle;Signal;HPM_P1;HPM_P2
2021/12/24 00:00:35;;;;;;;737.15;385.88;;;1.60;99.90;;;;;;4974198;28;20106;-72
2021/12/24 00:03:01;;;;;;;707.35;370.35;;;1.60;99.90;;;;;;4973733;28;20035;-73
2021/12/24 00:05:27;;;;;;;751.97;397.08;;;1.60;99.90;;;;;;4973997;28;20057;-73
2021/12/24 00:07:52;;;;;;;795.90;422.77;;;1.50;99.90;;;;;;4974221;28;20389;-73
2021/12/24 00:10:19;;;;;;;855.50;447.90;;;1.50;99.90;;;;;;4973935;28;20450;-72
2021/12/24 00:12:49;;;;;;;824.13;427.65;;;1.60;99.90;;;;;;4973599;28;20143;-72
2021/12/24 00:18:08;;;;;;;808.50;421.88;;;1.60;99.90;;;;;;4974044;28;20094;-72
2021/12/24 00:36:49;;;;;;;799.17;406.25;;;1.50;99.90;;;;;;4973506;28;20034;-72
2021/12/24 00:40:16;;;;;;;770.03;389.60;;;1.50;99.90;;;;;;4973574;28;20027;-72
2021/12/24 00:42:38;;;;;;;685.70;348.52;;;1.50;99.90;;;;;;4973713;28;20039;-72
2021/12/24 00:45:04;;;;;;;679.65;340.40;;;1.50;99.90;;;;;;4973352;28;20065;-72
2021/12/24 00:47:30;;;;;;;645.10;328.30;;;1.50;99.90;;;;;;4973015;28;20031;-72
2021/12/24 00:50:45;;;;;;;644.03;323.70;;;1.50;99.90;;;;;;4973146;28;20444;-72
2021/12/24 00:55:55;;;;;;;713.83;359.60;;;1.40;99.90;;;;;;4954223;29;20078;-73
2021/12/24 00:58:21;;;;;;;702.53;352.17;;;1.40;99.90;;;;;;4953560;29;20062;-73
2021/12/24 01:00:47;;;;;;;658.72;331.10;;;1.40;99.90;;;;;;4953945;28;20036;-72
2021/12/24 01:03:13;;;;;;;694.63;346.80;;;1.40;99.90;;;;;;4953954;29;20115;-72
2021/12/24 01:05:40;;;;;;;702.70;355.60;;;1.40;99.90;;;;;;4953826;28;20046;-72
2021/12/24 01:08:08;;;;;;;727.30;359.52;;;1.40;99.90;;;;;;4953863;28;20027;-73
2021/12/24 01:10:47;;;;;;;685.80;345.52;;;1.50;99.90;;;;;;4952667;28;20110;-72
2021/12/24 01:13:14;;;;;;;724.22;355.90;;;1.50;99.90;;;;;;4953452;28;20023;-72
2021/12/24 01:15:51;;;;;;;705.20;358.55;;;1.50;99.90;;;;;;4953603;28;20046;-73
2021/12/24 01:24:02;;;;;;;686.95;345.25;;;1.60;99.90;;;;;;4953823;28;20031;-73
2021/12/24 01:42:51;;;;;;;636.50;326.17;;;1.70;99.90;;;;;;5032961;28;20187;-73
2021/12/24 01:45:28;;;;;;;637.22;326.77;;;1.70;99.90;;;;;;5032745;28;20033;-72
2021/12/24 01:47:57;;;;;;;633.50;318.73;;;1.70;99.90;;;;;;5032709;28;20037;-72
2021/12/24 01:50:25;;;;;;;663.28;335.65;;;1.70;99.90;;;;;;5032507;28;20123;-72
2021/12/24 01:52:53;;;;;;;654.03;329.60;;;1.70;99.90;;;;;;5032505;28;20480;-72
2021/12/24 01:55:19;;;;;;;675.97;335.23;;;1.70;99.90;;;;;;5032221;28;20080;-72
2021/12/24 01:57:46;;;;;;;646.63;324.27;;;1.70;99.90;;;;;;5032404;28;20029;-72
2021/12/24 02:00:19;;;;;;;665.13;336.08;;;1.70;99.90;;;;;;5032319;28;20115;-72
2021/12/24 02:02:46;;;;;;;659.13;328.33;;;1.70;99.90;;;;;;5032485;28;20034;-72
2021/12/24 02:05:12;;;;;;;664.42;326.17;;;1.80;99.90;;;;;;5032093;28;20034;-72
2021/12/24 02:07:38;;;;;;;639.25;312.25;;;1.70;99.90;;;;;;5025550;28;20122;-72
2021/12/24 02:10:08;;;;;;;642.75;318.63;;;1.70;99.90;;;;;;4953558;28;20470;-73
2021/12/24 02:12:35;;;;;;;651.45;313.15;;;1.70;99.90;;;;;;4953641;28;20093;-72
2021/12/24 02:15:08;;;;;;;666.22;320.95;;;1.70;99.90;;;;;;4953357;28;20122;-72
2021/12/24 02:28:37;;;;;;;574.47;279.95;;;1.60;99.90;;;;;;4953471;29;20046;-72
2021/12/24 02:31:03;;;;;;;592.80;276.35;;;1.60;99.90;;;;;;4953278;28;20032;-72
2021/12/24 02:33:29;;;;;;;552.05;259.15;;;1.60;99.90;;;;;;4953360;28;20482;-73
2021/12/24 02:35:55;;;;;;;536.47;245.15;;;1.70;99.90;;;;;;4952899;28;20040;-73
2021/12/24 02:38:21;;;;;;;532.08;248.93;;;1.70;99.90;;;;;;4953403;28;20019;-73
2021/12/24 02:40:47;;;;;;;494.63;227.40;;;1.70;99.90;;;;;;4953393;29;20028;-72
2021/12/24 02:43:16;;;;;;;474.83;226.07;;;1.70;99.90;;;;;;4953083;28;20070;-72
2021/12/24 02:45:45;;;;;;;508.30;233.02;;;1.70;99.90;;;;;;4953064;28;20066;-72
2021/12/24 02:48:46;;;;;;;498.13;232.77;;;1.70;99.90;;;;;;4953232;29;20028;-72
2021/12/24 02:53:58;;;;;;;489.38;223.27;;;1.70;99.90;;;;;;4957149;28;20112;-72
2021/12/24 02:56:37;;;;;;;437.17;208.35;;;1.70;99.90;;;;;;4972112;28;20054;-72
2021/12/24 02:59:11;;;;;;;489.05;219.38;;;1.70;99.90;;;;;;4972277;28;20058;-72
2021/12/24 03:01:40;;;;;;;425.17;196.85;;;1.70;99.90;;;;;;4971988;28;20065;-72
2021/12/24 03:04:06;;;;;;;458.10;213.13;;;1.80;99.90;;;;;;4972105;28;20112;-73
2021/12/24 03:06:42;;;;;;;498.05;234.60;;;1.80;99.90;;;;;;4972117;28;20027;-72
2021/12/24 03:09:12;;;;;;;509.00;241.00;;;1.70;99.90;;;;;;4972312;28;20077;-73
2021/12/24 03:11:37;;;;;;;528.63;243.82;;;1.80;99.90;;;;;;4971936;28;20027;-73
2021/12/24 03:14:06;;;;;;;552.08;255.00;;;1.80;99.90;;;;;;4972379;28;20101;-73
2021/12/24 03:16:32;;;;;;;577.30;264.92;;;1.80;99.90;;;;;;4972026;28;20031;-72
2021/12/24 03:18:58;;;;;;;598.60;273.45;;;1.80;99.90;;;;;;4971854;28;20072;-73
2021/12/24 03:21:44;;;;;;;868.90;374.92;;;1.80;99.90;;;;;;4971962;28;20027;-73
2021/12/24 03:26:42;;;;;;;672.78;322.67;;;1.80;99.90;;;;;;4971948;28;20462;-72
2021/12/24 03:29:10;;;;;;;645.90;324.75;;;1.80;99.90;;;;;;4971845;28;20031;-72
2021/12/24 03:31:37;;;;;;;659.60;329.42;;;1.80;99.90;;;;;;4971623;28;20046;-72
2021/12/24 03:34:05;;;;;;;698.28;341.27;;;1.80;99.90;;;;;;4973012;28;20031;-72
2021/12/24 03:36:31;;;;;;;657.45;329.17;;;1.90;99.90;;;;;;4974937;28;20034;-72
2021/12/24 03:38:58;;;;;;;595.28;285.92;;;1.90;99.90;;;;;;4974861;28;20023;-72
2021/12/24 03:41:25;;;;;;;529.20;253.13;;;1.90;99.90;;;;;;4975253;28;20031;-72
2021/12/24 03:43:51;;;;;;;522.72;246.95;;;1.90;99.90;;;;;;4975563;28;20035;-72
2021/12/24 03:46:22;;;;;;;460.00;210.05;;;1.90;99.90;;;;;;4975021;28;20084;-72
2021/12/24 03:48:58;;;;;;;475.45;213.73;;;2.00;99.90;;;;;;4975222;28;20084;-72
2021/12/24 03:56:52;;;;;;;526.63;235.18;;;2.10;99.90;;;;;;4974189;28;20037;-72
2021/12/24 03:59:18;;;;;;;519.13;236.25;;;2.10;99.90;;;;;;4974569;28;20031;-72
2021/12/24 04:01:44;;;;;;;432.33;198.63;;;2.10;99.90;;;;;;4975044;28;20022;-72
2021/12/24 04:04:10;;;;;;;411.75;185.88;;;2.10;99.90;;;;;;4974766;28;20041;-72
2021/12/24 04:06:36;;;;;;;381.20;175.27;;;2.10;99.90;;;;;;4974457;28;20038;-72
2021/12/24 04:09:04;;;;;;;367.38;164.48;;;2.10;99.90;;;;;;4975077;28;20031;-72
2021/12/24 04:11:31;;;;;;;361.10;159.23;;;2.10;99.90;;;;;;4974750;28;20039;-72
2021/12/24 04:13:56;;;;;;;363.42;158.93;;;2.10;99.90;;;;;;4974422;28;20035;-72
2021/12/24 04:16:22;;;;;;;341.15;150.10;;;2.10;99.90;;;;;;4974513;28;20118;-72
2021/12/24 04:27:03;;;;;;;299.90;137.23;;;2.10;99.90;;;;;;4974537;28;20037;-72
2021/12/24 04:29:29;;;;;;;291.70;132.25;;;2.10;99.90;;;;;;4974651;28;20023;-72
2021/12/24 04:32:08;;;;;;;282.75;127.88;;;2.10;99.90;;;;;;4973646;28;20519;-72
2021/12/24 04:34:35;;;;;;;306.67;129.65;;;2.10;99.90;;;;;;4974255;28;20409;-72
2021/12/24 05:03:40;;;;;;;269.13;117.75;;;2.10;99.90;;;;;;4974116;28;20076;-73
2021/12/24 05:11:13;;;;;;;332.85;137.18;;;2.10;99.90;;;;;;4973586;28;20110;-73
2021/12/24 05:13:40;;;;;;;364.67;143.13;;;2.10;99.90;;;;;;4973950;28;20080;-73
2021/12/24 05:16:20;;;;;;;312.95;129.88;;;2.20;99.90;;;;;;4973730;28;20039;-73
2021/12/24 05:21:33;;;;;;;532.50;220.95;;;2.30;99.90;;;;;;4973222;28;20076;-73
2021/12/24 05:24:20;;;;;;;411.92;188.48;;;2.40;99.90;;;;;;4973855;28;20034;-73
2021/12/24 05:26:52;;;;;;;265.58;124.35;;;2.40;99.90;;;;;;4973716;28;20041;-73
2021/12/24 05:29:18;;;;;;;272.92;131.75;;;2.40;99.90;;;;;;4974117;28;20489;-73
2021/12/24 05:31:45;;;;;;;220.75;100.70;;;2.50;99.90;;;;;;4970868;28;20049;-73
2021/12/24 05:34:14;;;;;;;218.63;96.20;;;2.50;99.90;;;;;;4973527;28;20114;-73
2021/12/24 05:36:40;;;;;;;201.55;91.45;;;2.60;99.90;;;;;;4973263;28;20031;-72
2021/12/24 05:39:06;;;;;;;146.07;69.85;;;2.60;99.90;;;;;;4972791;28;20103;-73
2021/12/24 05:41:32;;;;;;;152.95;74.18;;;2.60;99.90;;;;;;4972820;28;20046;-73
2021/12/24 05:43:59;;;;;;;112.38;51.13;;;2.80;99.90;;;;;;4973213;28;20446;-73
2021/12/24 05:46:25;;;;;;;155.90;76.53;;;2.80;99.90;;;;;;4972530;28;20446;-72
2021/12/24 05:48:52;;;;;;;146.80;63.47;;;2.90;99.90;;;;;;4972774;28;20022;-73
2021/12/24 05:51:17;;;;;;;139.52;60.88;;;2.90;99.90;;;;;;4971171;28;20117;-72
2021/12/24 05:53:43;;;;;;;143.38;63.28;;;2.90;99.90;;;;;;4971476;28;20126;-72
2021/12/24 05:56:10;;;;;;;152.20;64.53;;;2.80;99.90;;;;;;4972351;28;20030;-73
2021/12/24 05:58:35;;;;;;;142.35;60.55;;;2.70;99.90;;;;;;4972795;28;20030;-73
2021/12/24 06:01:02;;;;;;;143.13;64.10;;;2.70;99.90;;;;;;4973075;28;20026;-73
2021/12/24 06:03:28;;;;;;;186.15;84.10;;;2.60;99.90;;;;;;4972957;28;20423;-72
2021/12/24 06:05:54;;;;;;;147.27;64.60;;;2.50;99.90;;;;;;4972680;28;20031;-73
2021/12/24 06:08:20;;;;;;;146.32;64.22;;;2.50;99.90;;;;;;4973153;28;20489;-73
2021/12/24 06:10:45;;;;;;;146.23;67.30;;;2.40;99.90;;;;;;4973283;28;20047;-73
2021/12/24 06:13:11;;;;;;;147.23;65.47;;;2.30;99.90;;;;;;4972665;28;20046;-73
2021/12/24 06:15:48;;;;;;;142.98;65.97;;;2.20;99.90;;;;;;4972603;28;20034;-73
2021/12/24 06:18:28;;;;;;;162.45;69.82;;;2.20;99.90;;;;;;4973144;28;20042;-73
2021/12/24 06:20:58;;;;;;;153.95;69.53;;;2.10;99.90;;;;;;4972915;28;20457;-73
2021/12/24 06:23:26;;;;;;;154.25;68.70;;;2.10;99.90;;;;;;4972662;28;20023;-73
2021/12/24 06:25:54;;;;;;;148.38;68.15;;;2.00;99.90;;;;;;4973214;28;20171;-73
2021/12/24 06:28:22;;;;;;;143.52;67.20;;;2.00;99.90;;;;;;4972682;28;20103;-73
2021/12/24 06:30:48;;;;;;;156.50;71.53;;;1.90;99.90;;;;;;4973141;28;20031;-73
2021/12/24 06:33:14;;;;;;;160.68;72.07;;;1.90;99.90;;;;;;4971900;28;20030;-73
2021/12/24 06:35:40;;;;;;;167.00;77.60;;;1.80;99.90;;;;;;4972356;28;20076;-73
2021/12/24 06:38:06;;;;;;;159.05;72.90;;;1.80;99.90;;;;;;4972671;28;20026;-73
2021/12/24 06:40:33;;;;;;;182.18;79.82;;;1.80;99.90;;;;;;4972284;28;20031;-73
2021/12/24 06:42:59;;;;;;;169.02;78.15;;;1.80;99.90;;;;;;4972433;28;20420;-73
2021/12/24 06:45:24;;;;;;;204.50;88.70;;;1.80;99.90;;;;;;4972590;28;20469;-73
2021/12/24 06:47:57;;;;;;;238.00;98.53;;;1.80;99.90;;;;;;4972313;28;20035;-73
2021/12/24 06:50:24;;;;;;;273.38;110.50;;;1.80;99.90;;;;;;4972526;28;20034;-73
2021/12/24 06:52:50;;;;;;;316.95;130.68;;;1.80;99.90;;;;;;4972940;28;20027;-73
2021/12/24 06:55:16;;;;;;;268.20;118.13;;;1.90;99.90;;;;;;4971949;28;20100;-73
2021/12/24 06:57:43;;;;;;;278.38;122.97;;;1.90;99.90;;;;;;4972440;28;20034;-73
2021/12/24 07:00:19;;;;;;;277.80;118.05;;;2.00;99.90;;;;;;4972856;28;20023;-73
2021/12/24 07:02:46;;;;;;;292.17;124.25;;;2.00;99.90;;;;;;4972107;28;20072;-73
2021/12/24 07:05:12;;;;;;;309.73;132.98;;;2.20;99.90;;;;;;4972107;28;20038;-73
2021/12/24 07:07:38;;;;;;;304.10;127.70;;;2.70;99.90;;;;;;4971926;28;20026;-74
2021/12/24 07:10:05;;;;;;;282.25;122.88;;;3.20;99.90;;;;;;4971829;28;20026;-73
2021/12/24 07:12:31;;;;;;;263.73;121.32;;;3.50;99.90;;;;;;4972527;28;20099;-71
2021/12/24 07:14:57;;;;;;;283.05;125.90;;;3.90;99.90;;;;;;4972056;28;20043;-72
2021/12/24 07:17:23;;;;;;;294.05;130.15;;;4.10;99.90;;;;;;4972122;28;20485;-72
2021/12/24 07:19:49;;;;;;;288.40;128.57;;;4.30;99.90;;;;;;4972062;28;20145;-72
2021/12/24 07:22:17;;;;;;;272.58;126.25;;;4.50;99.90;;;;;;4972042;28;20022;-72
2021/12/24 07:24:43;;;;;;;312.65;143.00;;;4.70;99.90;;;;;;4971934;28;20066;-73
2021/12/24 07:27:10;;;;;;;364.33;177.88;;;4.80;99.90;;;;;;4971918;28;20038;-72
2021/12/24 07:29:36;;;;;;;375.10;180.15;;;5.00;99.90;;;;;;4971957;28;20027;-72
2021/12/24 07:32:03;;;;;;;382.60;192.93;;;5.20;99.90;;;;;;4971982;28;20026;-72
2021/12/24 07:34:29;;;;;;;410.98;206.60;;;5.40;99.90;;;;;;4971860;28;20084;-72
2021/12/24 07:36:55;;;;;;;399.52;206.68;;;5.50;99.90;;;;;;4971847;28;20023;-72
2021/12/24 07:39:21;;;;;;;398.75;205.80;;;5.90;99.90;;;;;;4971963;28;20428;-72
2021/12/24 07:41:48;;;;;;;413.60;214.75;;;6.20;99.90;;;;;;4972314;28;20031;-75
2021/12/24 07:44:16;;;;;;;382.50;200.07;;;6.50;99.90;;;;;;4971781;28;20053;-74
2021/12/24 07:46:49;;;;;;;388.33;202.35;;;6.60;99.90;;;;;;4971786;28;20043;-75
2021/12/24 07:49:30;;;;;;;393.65;207.40;;;6.60;99.90;;;;;;4971918;28;20035;-72
2021/12/24 07:52:12;;;;;;;399.40;209.60;;;6.60;99.90;;;;;;4971690;28;20478;-72
2021/12/24 07:54:44;;;;;;;400.50;210.40;;;6.50;99.90;;;;;;4971565;28;20104;-72
2021/12/24 07:57:11;;;;;;;407.27;209.15;;;6.60;99.90;;;;;;4971624;28;20458;-72
2021/12/24 07:59:39;;;;;;;410.08;210.45;;;6.70;99.90;;;;;;4971826;28;20377;-72
2021/12/24 08:02:15;;;;;;;423.65;219.73;;;7.00;99.90;;;;;;4971732;28;20023;-75
2021/12/24 08:04:45;;;;;;;490.13;246.32;;;7.20;99.90;;;;;;4971168;28;20078;-73
2021/12/24 08:07:11;;;;;;;435.48;229.88;;;7.20;99.90;;;;;;4971662;28;20031;-73
2021/12/24 08:09:37;;;;;;;448.48;226.95;;;7.30;99.90;;;;;;4971651;28;20031;-72
2021/12/24 08:12:09;;;;;;;484.30;249.60;;;7.50;99.90;;;;;;4971113;28;20454;-75
2021/12/24 08:14:35;;;;;;;433.45;220.27;;;7.40;99.90;;;;;;4971374;28;20460;-74
2021/12/24 08:17:01;;;;;;;414.38;217.85;;;7.50;99.90;;;;;;4971245;28;20039;-74
2021/12/24 08:19:29;;;;;;;439.80;231.65;;;7.70;99.90;;;;;;4971881;28;20073;-74
2021/12/24 08:21:55;;;;;;;412.92;213.75;;;8.10;99.90;;;;;;4974644;28;20041;-74
2021/12/24 08:24:21;;;;;;;367.80;185.18;;;8.30;99.90;;;;;;4974806;28;20031;-74
2021/12/24 08:26:47;;;;;;;417.40;214.93;;;8.20;99.90;;;;;;4974542;28;20034;-73
2021/12/24 08:29:14;;;;;;;416.45;217.90;;;8.30;99.90;;;;;;4974733;28;20102;-73
2021/12/24 08:31:40;;;;;;;275.75;128.38;;;8.30;99.90;;;;;;4974761;28;20034;-73
2021/12/24 08:34:06;;;;;;;288.60;125.82;;;8.50;99.90;;;;;;4974261;28;20039;-73
2021/12/24 08:36:32;;;;;;;254.55;102.75;;;8.60;99.90;;;;;;4974608;28;20034;-73
2021/12/24 08:38:58;;;;;;;124.10;50.78;;;8.90;99.90;;;;;;4974697;28;20027;-74
2021/12/24 08:41:25;;;;;;;137.70;57.63;;;9.30;99.90;;;;;;4974407;28;20481;-74
2021/12/24 08:43:51;;;;;;;177.38;67.10;;;9.50;99.90;;;;;;4974584;28;20031;-73
2021/12/24 08:46:17;;;;;;;259.40;98.90;;;9.80;99.90;;;;;;4974328;28;20089;-74
2021/12/24 08:48:44;;;;;;;240.27;92.60;;;10.00;99.90;;;;;;4974538;28;20031;-74
2021/12/24 08:51:11;;;;;;;140.70;54.00;;;10.30;99.90;;;;;;4974426;28;20118;-74
2021/12/24 08:53:37;;;;;;;87.57;34.38;;;10.50;99.90;;;;;;4973732;28;20055;-74
2021/12/24 08:56:04;;;;;;;80.18;33.33;;;10.70;99.90;;;;;;4974546;28;20123;-74
2021/12/24 08:58:29;;;;;;;51.97;21.35;;;10.80;99.90;;;;;;4974020;28;20076;-74
2021/12/24 09:00:55;;;;;;;44.45;15.45;;;11.00;99.90;;;;;;4973875;28;20031;-74
2021/12/24 09:03:21;;;;;;;47.30;17.95;;;11.20;99.90;;;;;;4974223;28;20034;-74
2021/12/24 09:05:47;;;;;;;40.95;15.57;;;11.30;99.90;;;;;;4974203;28;20033;-74
2021/12/24 09:08:13;;;;;;;24.25;10.15;;;11.40;99.90;;;;;;4973731;28;20026;-73
2021/12/24 09:10:38;;;;;;;40.22;15.30;;;11.50;99.90;;;;;;4974127;28;20519;-74
2021/12/24 09:13:05;;;;;;;25.35;11.57;;;11.70;99.90;;;;;;4974088;28;20027;-74
2021/12/24 09:15:31;;;;;;;35.13;11.85;;;11.90;99.90;;;;;;4973576;28;20039;-74
2021/12/24 09:17:58;;;;;;;53.05;15.40;;;12.00;99.90;;;;;;4974212;28;20049;-74
2021/12/24 09:20:30;;;;;;;49.47;15.30;;;12.40;99.90;;;;;;4973697;28;20027;-74
2021/12/24 09:22:59;;;;;;;33.20;11.07;;;12.50;99.90;;;;;;4973849;28;20470;-74
2021/12/24 09:25:26;;;;;;;55.17;15.35;;;12.70;99.90;;;;;;4973809;28;20486;-74
2021/12/24 09:27:53;;;;;;;53.13;15.93;;;12.80;99.90;;;;;;4974055;28;20038;-74
2021/12/24 09:30:19;;;;;;;39.28;13.43;;;13.20;99.90;;;;;;4973434;28;20027;-74
2021/12/24 09:32:45;;;;;;;37.13;11.90;;;13.20;99.90;;;;;;4972544;28;20031;-74
2021/12/24 09:35:11;;;;;;;43.08;15.05;;;13.50;99.90;;;;;;4973543;28;20039;-74
2021/12/24 09:37:38;;;;;;;30.40;11.75;;;14.00;99.90;;;;;;4973800;28;20172;-74
2021/12/24 09:40:07;;;;;;;21.17;10.18;;;14.50;99.90;;;;;;4973740;28;20062;-74
2021/12/24 09:42:34;;;;;;;19.23;10.10;;;14.60;97.90;;;;;;4973440;28;20031;-74
2021/12/24 09:45:01;;;;;;;15.15;8.00;;;14.10;99.50;;;;;;4973696;28;20073;-73
2021/12/24 09:47:26;;;;;;;15.18;8.50;;;13.90;99.90;;;;;;4973196;28;20501;-73
2021/12/24 09:49:53;;;;;;;15.25;8.30;;;13.90;99.90;;;;;;4973567;28;20027;-73
2021/12/24 09:52:20;;;;;;;17.70;8.55;;;14.60;97.80;;;;;;4973199;28;20058;-73
2021/12/24 09:54:47;;;;;;;16.08;9.75;;;15.10;95.20;;;;;;4973145;28;20074;-74
2021/12/24 09:57:13;;;;;;;15.98;8.48;;;15.70;93.40;;;;;;4973127;28;20512;-73
2021/12/24 09:59:39;;;;;;;15.57;8.18;;;16.00;90.70;;;;;;4973128;28;20473;-73
2021/12/24 10:02:08;;;;;;;13.60;5.95;;;16.50;89.30;;;;;;4973268;28;20058;-74
2021/12/24 10:04:36;;;;;;;30.05;16.38;;;16.60;87.20;;;;;;4973244;28;20528;-73
2021/12/24 10:07:11;;;;;;;28.70;14.05;;;16.80;85.40;;;;;;4973017;28;20069;-73
2021/12/24 10:09:45;;;;;;;24.23;13.90;;;17.40;84.60;;;;;;4973212;28;20034;-73
2021/12/24 10:12:37;;;;;;;14.38;9.07;;;17.40;82.60;;;;;;4972860;28;20385;-73
2021/12/24 10:15:04;;;;;;;13.43;6.68;;;17.20;81.50;;;;;;4975605;28;20051;-73
2021/12/24 10:17:35;;;;;;;33.40;16.63;;;17.20;81.10;;;;;;4972968;28;20465;-73
2021/12/24 10:20:13;;;;;;;13.52;9.32;;;17.20;80.10;;;;;;4973026;28;20051;-73
2021/12/24 10:22:57;;;;;;;16.65;10.43;;;17.20;80.30;;;;;;4972886;28;20362;-73
2021/12/24 10:25:29;;;;;;;19.77;11.23;;;17.60;79.30;;;;;;4973000;28;20027;-73
2021/12/24 10:27:56;;;;;;;11.77;6.65;;;18.20;78.00;;;;;;4972615;28;20493;-73
2021/12/24 10:30:32;;;;;;;10.05;5.57;;;18.20;76.10;;;;;;4972708;28;20026;-73
2021/12/24 10:33:08;;;;;;;12.20;8.10;;;18.30;75.50;;;;;;4972521;28;20037;-73
2021/12/24 10:35:33;;;;;;;13.60;7.50;;;18.90;75.60;;;;;;4972491;28;20385;-73
2021/12/24 10:38:14;;;;;;;10.27;6.20;;;18.80;73.50;;;;;;4972914;28;20033;-73
2021/12/24 10:41:15;;;;;;;20.55;12.00;;;18.50;73.00;;;;;;4972863;28;20034;-73
2021/12/24 10:43:42;;;;;;;14.55;7.05;;;18.80;73.00;;;;;;5031890;28;20041;-73
2021/12/24 10:46:09;;;;;;;28.45;13.63;;;18.50;71.80;;;;;;5031742;28;20129;-72
2021/12/24 10:48:36;;;;;;;17.88;9.93;;;18.70;71.90;;;;;;5031937;28;20063;-73
2021/12/24 10:51:07;;;;;;;12.43;6.28;;;19.10;71.30;;;;;;5032063;28;20446;-72
2021/12/24 10:54:03;;;;;;;12.93;6.80;;;18.90;71.30;;;;;;5031586;28;20026;-73
2021/12/24 10:56:28;;;;;;;12.43;6.80;;;18.80;71.10;;;;;;5031637;28;20033;-73
2021/12/24 10:58:54;;;;;;;17.02;10.43;;;19.10;71.10;;;;;;5031869;28;20037;-73
2021/12/24 11:01:20;;;;;;;9.43;5.80;;;19.00;70.50;;;;;;5031571;28;20033;-72
2021/12/24 11:03:46;;;;;;;9.65;6.70;;;19.10;70.60;;;;;;5031627;28;20037;-73
2021/12/24 11:06:13;;;;;;;8.77;4.75;;;19.40;70.20;;;;;;5031566;28;20447;-73
2021/12/24 11:08:39;;;;;;;15.18;9.43;;;18.90;69.80;;;;;;5031678;28;20030;-72
2021/12/24 11:11:07;;;;;;;21.83;12.65;;;19.40;70.40;;;;;;5031584;28;20393;-73
2021/12/24 11:13:40;;;;;;;27.23;12.98;;;18.80;69.70;;;;;;5031420;28;20056;-73
2021/12/24 11:16:19;;;;;;;18.02;10.73;;;19.00;70.50;;;;;;5031493;28;20044;-72
2021/12/24 11:19:01;;;;;;;15.32;8.20;;;18.60;70.30;;;;;;4974046;28;20122;-72
2021/12/24 11:21:28;;;;;;;;;;;18.60;70.50;;;;;;4972618;28;20023;-73
2021/12/24 11:23:54;;;;;;;11.00;6.93;;;18.50;71.10;;;;;;4972186;28;19949;-71
2021/12/24 11:26:25;;;;;;;8.65;4.97;;;18.50;71.80;;;;;;4972241;28;20035;-70
2021/12/24 11:28:51;;;;;;;12.07;8.00;;;18.10;71.20;;;;;;4972038;28;20104;-70
2021/12/24 11:31:23;;;;;;;13.27;7.28;;;18.10;72.40;;;;;;4972315;28;20030;-70
2021/12/24 11:33:51;;;;;;;16.10;7.65;;;18.00;72.00;;;;;;4972170;28;20454;-71
2021/12/24 11:36:20;;;;;;;18.25;10.27;;;18.00;73.20;;;;;;4971917;28;20030;-71
2021/12/24 11:38:55;;;;;;;17.60;9.43;;;18.10;73.90;;;;;;4971762;28;20113;-71
2021/12/24 11:41:25;;;;;;;15.57;9.27;;;17.80;73.60;;;;;;4971903;28;20169;-71
2021/12/24 11:43:52;;;;;;;21.88;13.07;;;17.70;74.00;;;;;;4972018;28;20039;-71
2021/12/24 11:46:21;;;;;;;22.05;12.23;;;17.70;74.50;;;;;;4971874;28;20106;-71
2021/12/24 11:48:49;;;;;;;32.88;19.52;;;17.40;74.70;;;;;;4971883;28;20503;-71
2021/12/24 11:51:23;;;;;;;47.08;29.55;;;17.10;76.80;;;;;;4971837;28;20034;-71
2021/12/24 11:53:51;;;;;;;35.33;18.67;;;16.60;78.50;;;;;;4971920;28;20075;-71
2021/12/24 11:56:19;;;;;;;56.10;30.02;;;16.20;80.50;;;;;;4974814;28;20031;-70
2021/12/24 11:58:53;;;;;;;98.05;48.67;;;15.90;82.90;;;;;;4975150;28;20420;-71
2021/12/24 12:01:22;;;;;;;190.38;88.43;;;15.60;85.90;;;;;;4975214;28;20473;-73
2021/12/24 12:03:53;;;;;;;313.80;147.98;;;15.40;87.70;;;;;;4975279;28;20466;-71
2021/12/24 12:06:22;;;;;;;220.25;100.90;;;15.40;90.60;;;;;;4975130;28;20027;-71
2021/12/24 12:08:53;;;;;;;225.68;116.88;;;15.30;90.90;;;;;;4975152;28;20063;-71
2021/12/24 12:11:21;;;;;;;121.90;69.53;;;15.20;92.40;;;;;;4974985;28;20059;-71
2021/12/24 12:14:03;;;;;;;112.82;61.75;;;15.10;93.60;;;;;;4974899;28;20308;-71
2021/12/24 12:16:55;;;;;;;59.85;31.77;;;15.00;93.40;;;;;;4974949;28;20114;-71
2021/12/24 12:22:19;;;;;;;22.83;12.90;;;14.90;95.40;;;;;;4975232;28;20035;-71
2021/12/24 12:24:57;;;;;;;20.55;11.27;;;14.80;96.00;;;;;;4974695;28;20092;-71
2021/12/24 12:27:32;;;;;;;22.02;9.73;;;14.70;98.20;;;;;;4974850;28;20049;-71
2021/12/24 12:30:19;;;;;;;17.48;11.20;;;14.70;97.30;;;;;;4975234;28;20027;-71
2021/12/24 12:32:46;;;;;;;14.77;8.00;;;14.70;97.70;;;;;;4973344;28;20389;-71
2021/12/24 12:35:12;;;;;;;33.15;16.52;;;14.80;96.30;;;;;;4973629;28;20035;-71
2021/12/24 12:37:49;;;;;;;45.55;22.42;;;14.90;97.90;;;;;;4973931;28;20031;-71
2021/12/24 12:40:18;;;;;;;45.85;22.08;;;14.90;99.10;;;;;;4973820;28;20084;-71
2021/12/24 12:42:54;;;;;;;64.32;29.60;;;14.90;97.40;;;;;;4973663;28;20031;-71
2021/12/24 12:45:43;;;;;;;41.47;19.38;;;15.00;97.70;;;;;;4973516;28;20039;-71
2021/12/24 12:48:12;;;;;;;48.17;23.55;;;15.00;97.70;;;;;;4983102;28;20034;-71
2021/12/24 12:50:49;;;;;;;71.85;36.22;;;15.00;96.60;;;;;;4973941;28;20031;-71
2021/12/24 12:53:27;;;;;;;29.15;15.50;;;15.00;98.80;;;;;;4973440;28;20027;-72
2021/12/24 12:56:09;;;;;;;15.07;8.13;;;15.00;98.40;;;;;;4973541;28;20050;-72
2021/12/24 12:58:37;;;;;;;11.18;6.18;;;15.00;96.60;;;;;;4973903;28;20057;-72
2021/12/24 13:01:06;;;;;;;17.08;9.25;;;15.10;96.30;;;;;;4973933;28;20073;-72
2021/12/24 13:03:33;;;;;;;30.08;13.70;;;15.10;96.80;;;;;;4973688;28;20034;-72
2021/12/24 13:06:04;;;;;;;22.67;12.30;;;15.10;97.00;;;;;;4971688;28;20115;-72
2021/12/24 13:08:33;;;;;;;21.80;11.48;;;15.10;97.60;;;;;;4973369;28;20055;-72
2021/12/24 13:11:03;;;;;;;22.70;11.05;;;15.10;98.50;;;;;;4973695;28;20039;-71
2021/12/24 13:13:55;;;;;;;24.95;10.88;;;15.00;99.90;;;;;;4973240;28;20382;-72
2021/12/24 13:16:34;;;;;;;29.80;14.40;;;15.00;99.90;;;;;;4973028;28;20023;-72
2021/12/24 13:19:24;;;;;;;31.65;13.40;;;15.00;99.90;;;;;;4973110;28;20027;-72
2021/12/24 13:24:17;;;;;;;26.17;13.30;;;14.90;99.90;;;;;;4973077;28;20046;-72
2021/12/24 13:26:45;;;;;;;27.55;13.50;;;14.90;99.90;;;;;;4973055;28;20053;-72
2021/12/24 13:29:17;;;;;;;27.90;14.38;;;14.90;99.90;;;;;;4973101;28;20077;-72
2021/12/24 13:31:57;;;;;;;33.15;16.60;;;14.90;99.90;;;;;;4973098;28;20366;-73
2021/12/24 13:34:25;;;;;;;25.38;12.00;;;14.90;99.90;;;;;;4972898;28;20039;-72
2021/12/24 13:36:51;;;;;;;31.83;15.82;;;14.90;99.90;;;;;;4973210;28;20118;-72
2021/12/24 13:39:21;;;;;;;26.25;13.43;;;14.80;99.90;;;;;;4972849;28;20035;-72
2021/12/24 13:41:48;;;;;;;33.00;15.35;;;14.90;99.90;;;;;;4972671;28;20739;-72
2021/12/24 13:44:25;;;;;;;19.30;10.23;;;14.80;99.90;;;;;;4972810;28;20027;-72
2021/12/24 13:46:59;;;;;;;24.85;11.05;;;14.90;99.90;;;;;;4973118;28;20122;-72
2021/12/24 13:49:42;;;;;;;41.60;15.35;;;14.70;99.90;;;;;;4972778;28;20424;-72
2021/12/24 13:54:52;;;;;;;24.35;11.13;;;14.70;99.90;;;;;;4972650;28;20061;-72
2021/12/24 13:57:19;;;;;;;23.75;11.23;;;14.60;99.90;;;;;;4972312;28;20023;-72
2021/12/24 13:59:54;;;;;;;22.02;9.73;;;14.50;99.90;;;;;;4972965;28;20027;-72
2021/12/24 14:02:20;;;;;;;29.50;15.32;;;14.50;99.90;;;;;;4972212;28;20113;-72
2021/12/24 14:04:46;;;;;;;35.85;19.52;;;14.40;99.90;;;;;;4972705;28;20431;-72
2021/12/24 14:07:12;;;;;;;40.53;20.60;;;14.30;99.90;;;;;;4972564;28;20041;-72
2021/12/24 14:09:39;;;;;;;38.30;19.48;;;14.30;99.90;;;;;;4972518;28;20065;-72
2021/12/24 14:12:07;;;;;;;33.33;18.85;;;14.20;99.90;;;;;;4972033;28;20374;-72
2021/12/24 14:15:07;;;;;;;35.60;19.67;;;14.10;99.90;;;;;;4972752;28;20424;-72
2021/12/24 14:18:17;;;;;;;33.00;20.13;;;13.90;99.90;;;;;;4972159;28;20461;-72
2021/12/24 14:21:00;;;;;;;38.25;22.08;;;13.70;99.90;;;;;;4972257;28;20034;-72
2021/12/24 14:23:25;;;;;;;38.03;21.88;;;13.50;99.90;;;;;;4972242;28;20492;-72
2021/12/24 14:25:59;;;;;;;39.30;22.10;;;13.30;99.90;;;;;;4972318;28;20031;-72
2021/12/24 14:28:25;;;;;;;48.08;25.92;;;13.20;99.90;;;;;;4972201;28;20030;-72
2021/12/24 14:31:03;;;;;;;48.17;24.13;;;13.00;99.90;;;;;;4972124;28;20031;-73
2021/12/24 14:33:36;;;;;;;88.97;44.70;;;12.90;99.90;;;;;;4972309;28;20516;-72